Time;durP1;ratioP1;P1;durP2;ratioP2;P2;SDS_P1;SDS_P2;PMS_P1;PMS_P2;Temp;Humidity;BMP_temperature;BMP_pressure;BME280_temperature;BME280_humidity;BME280_pressure;Samples;Min_cycle;Max_cycle;Signal;HPM_P1;HPM_P2
2023/07/30 00:00:45;;;;;;;63.25;38.60;;;20.60;99.90;;;;;;4973678;28;20049;-86
2023/07/30 00:03:10;;;;;;;60.72;38.35;;;19.10;99.90;;;;;;4956334;28;20440;-86
2023/07/30 00:05:36;;;;;;;59.28;37.25;;;19.10;99.90;;;;;;4947959;28;20129;-86
2023/07/30 00:08:01;;;;;;;55.30;38.35;;;20.10;99.90;;;;;;4937888;28;20047;-85
2023/07/30 00:10:27;;;;;;;56.10;39.63;;;20.10;99.90;;;;;;4960446;28;20053;-86
2023/07/30 00:12:53;;;;;;;51.67;38.78;;;19.60;99.90;;;;;;4961694;28;20061;-85
2023/07/30 00:15:18;;;;;;;57.53;39.78;;;19.80;99.90;;;;;;4961906;28;20125;-86
2023/07/30 00:17:44;;;;;;;60.90;39.83;;;20.40;99.90;;;;;;4954278;29;20842;-85
2023/07/30 00:20:10;;;;;;;61.65;38.63;;;19.50;99.90;;;;;;4938473;29;20477;-86
2023/07/30 00:22:35;;;;;;;59.50;39.33;;;19.90;99.90;;;;;;4943408;28;20046;-86
2023/07/30 00:25:01;;;;;;;51.72;39.15;;;19.30;99.90;;;;;;4942888;28;20039;-86
2023/07/30 00:27:26;;;;;;;58.22;39.60;;;20.40;99.90;;;;;;4972915;28;20061;-86
2023/07/30 00:29:52;;;;;;;51.75;37.95;;;20.40;99.90;;;;;;4973000;28;20050;-86
2023/07/30 00:32:17;;;;;;;58.60;39.53;;;19.40;99.90;;;;;;4972941;28;20043;-86
2023/07/30 00:34:44;;;;;;;56.60;39.92;;;20.40;99.90;;;;;;4972951;28;20053;-86
2023/07/30 00:37:09;;;;;;;62.50;40.47;;;20.00;99.90;;;;;;4972768;28;20425;-86
2023/07/30 00:39:35;;;;;;;51.53;40.83;;;20.70;99.90;;;;;;4969932;28;20035;-86
2023/07/30 00:42:00;;;;;;;58.55;42.35;;;19.50;99.90;;;;;;4955411;28;20046;-86
2023/07/30 00:44:26;;;;;;;59.63;43.08;;;19.50;99.90;;;;;;4971841;28;20039;-86
2023/07/30 00:46:52;;;;;;;57.72;42.05;;;20.70;99.90;;;;;;4971981;28;20042;-86
2023/07/30 00:49:18;;;;;;;59.95;39.47;;;21.30;99.90;;;;;;4972655;28;20046;-86
2023/07/30 00:51:44;;;;;;;57.42;39.47;;;21.20;99.90;;;;;;4946081;29;20035;-86
2023/07/30 00:54:10;;;;;;;62.53;39.90;;;22.50;99.90;;;;;;4952552;28;20071;-85
2023/07/30 00:56:36;;;;;;;51.78;39.63;;;21.00;99.90;;;;;;4954614;28;20039;-86
2023/07/30 00:59:02;;;;;;;56.50;40.78;;;20.10;99.90;;;;;;4937112;29;20082;-86
2023/07/30 01:01:33;;;;;;;59.75;41.42;;;20.00;99.90;;;;;;4953295;29;20489;-86
2023/07/30 01:03:58;;;;;;;55.63;40.13;;;20.60;99.90;;;;;;4951884;28;20050;-86
2023/07/30 01:06:24;;;;;;;56.30;41.00;;;20.20;99.90;;;;;;4947219;28;20117;-85
2023/07/30 01:08:49;;;;;;;58.67;39.97;;;21.10;99.90;;;;;;4971700;28;20534;-86
2023/07/30 01:11:16;;;;;;;57.83;40.95;;;19.80;99.90;;;;;;4943760;29;20042;-86
2023/07/30 01:13:42;;;;;;;60.75;40.00;;;20.20;99.90;;;;;;4949451;28;20042;-85
2023/07/30 01:16:08;;;;;;;52.50;40.05;;;19.90;99.90;;;;;;4968754;28;20072;-86
2023/07/30 01:18:34;;;;;;;61.60;41.83;;;22.10;99.90;;;;;;4954145;28;20484;-86
2023/07/30 01:21:00;;;;;;;55.63;39.40;;;19.90;99.90;;;;;;4952469;28;20049;-86
2023/07/30 01:23:26;;;;;;;57.85;41.15;;;20.50;99.90;;;;;;4953417;28;20042;-86
2023/07/30 01:26:03;;;;;;;50.05;40.38;;;20.50;99.90;;;;;;4959526;28;20086;-86
2023/07/30 01:28:36;;;;;;;60.38;39.63;;;19.60;99.90;;;;;;4971184;28;20038;-85
2023/07/30 01:31:02;;;;;;;58.13;41.15;;;19.50;99.90;;;;;;4971272;28;20055;-86
2023/07/30 01:33:29;;;;;;;61.92;40.70;;;20.80;99.90;;;;;;4962278;28;20078;-86
2023/07/30 01:35:57;;;;;;;61.33;40.67;;;20.30;99.90;;;;;;4959918;28;20042;-86
2023/07/30 01:38:23;;;;;;;60.15;40.92;;;22.10;99.90;;;;;;4983092;28;20035;-86
2023/07/30 01:40:49;;;;;;;56.10;41.08;;;19.80;99.90;;;;;;4954629;28;20424;-86
2023/07/30 01:43:14;;;;;;;55.25;40.13;;;19.80;99.90;;;;;;4962422;28;20043;-86
2023/07/30 01:45:40;;;;;;;64.50;42.13;;;20.60;99.90;;;;;;4952711;29;20047;-86
2023/07/30 01:48:06;;;;;;;60.13;40.55;;;20.40;99.90;;;;;;4945073;28;20093;-86
2023/07/30 01:50:32;;;;;;;57.00;40.53;;;19.50;99.90;;;;;;4971445;28;20043;-86
2023/07/30 01:52:57;;;;;;;54.30;40.10;;;19.30;99.90;;;;;;4961864;28;20571;-86
2023/07/30 01:55:23;;;;;;;53.45;39.85;;;19.50;99.90;;;;;;4936601;29;20110;-86
2023/07/30 01:57:48;;;;;;;56.78;38.72;;;19.40;99.90;;;;;;4958692;28;20042;-86
2023/07/30 02:00:14;;;;;;;58.35;40.90;;;20.10;99.90;;;;;;4971477;28;20522;-86
2023/07/30 02:02:40;;;;;;;53.75;38.90;;;19.70;99.90;;;;;;4957773;28;20062;-86
2023/07/30 02:05:05;;;;;;;50.38;39.45;;;20.20;99.90;;;;;;4986060;28;20141;-86
2023/07/30 02:07:31;;;;;;;61.60;40.05;;;19.60;99.90;;;;;;4971075;28;20159;-85
2023/07/30 02:09:56;;;;;;;56.17;40.88;;;19.70;99.90;;;;;;4971401;28;20062;-86
2023/07/30 02:12:22;;;;;;;60.65;40.83;;;19.50;99.90;;;;;;4956177;28;20131;-86
2023/07/30 02:14:48;;;;;;;45.05;37.63;;;20.50;99.90;;;;;;4942093;28;20128;-86
2023/07/30 02:17:13;;;;;;;42.08;33.88;;;20.20;99.90;;;;;;4968944;28;20052;-86
2023/07/30 02:19:39;;;;;;;36.58;29.92;;;20.20;99.90;;;;;;4952045;29;20051;-86
2023/07/30 02:22:04;;;;;;;34.15;29.10;;;20.00;99.90;;;;;;4952882;28;20130;-86
2023/07/30 02:24:30;;;;;;;32.22;28.45;;;19.80;99.90;;;;;;4971091;28;20408;-86
2023/07/30 02:26:56;;;;;;;30.10;25.98;;;21.10;99.90;;;;;;4957469;28;20054;-86
2023/07/30 02:29:21;;;;;;;32.97;26.25;;;22.20;99.90;;;;;;4968087;28;20058;-86
2023/07/30 02:31:47;;;;;;;28.27;25.20;;;19.80;99.90;;;;;;4953190;28;20043;-86
2023/07/30 02:34:12;;;;;;;27.45;24.15;;;20.10;99.90;;;;;;4959128;28;20047;-85
2023/07/30 02:36:38;;;;;;;25.23;22.70;;;20.20;99.90;;;;;;4940161;29;20098;-86
2023/07/30 02:39:03;;;;;;;24.42;20.67;;;21.20;99.90;;;;;;4952843;28;20417;-85
2023/07/30 02:41:29;;;;;;;25.77;22.90;;;20.80;99.90;;;;;;4975054;28;20050;-85
2023/07/30 02:43:54;;;;;;;29.15;22.50;;;20.10;99.90;;;;;;4958906;28;20489;-86
2023/07/30 02:46:20;;;;;;;26.88;24.02;;;20.90;99.90;;;;;;4974900;28;20039;-85
2023/07/30 02:48:46;;;;;;;29.10;25.63;;;20.10;99.90;;;;;;4974971;28;20046;-86
2023/07/30 02:51:11;;;;;;;31.65;24.77;;;19.90;99.90;;;;;;4956899;28;20085;-86
2023/07/30 02:53:37;;;;;;;31.20;23.33;;;20.10;4.40;;;;;;4957888;28;20036;-86
2023/07/30 02:56:02;;;;;;;25.10;22.40;;;21.50;99.90;;;;;;4955066;28;20523;-86
2023/07/30 02:58:28;;;;;;;23.58;21.25;;;20.10;99.90;;;;;;4974859;28;20097;-86
2023/07/30 03:00:53;;;;;;;22.85;20.58;;;20.20;1.00;;;;;;4958368;28;20045;-86
2023/07/30 03:03:19;;;;;;;25.65;22.38;;;20.00;99.90;;;;;;4965361;28;20550;-85
2023/07/30 03:05:44;;;;;;;25.40;22.40;;;20.20;99.90;;;;;;4966657;28;20515;-86
2023/07/30 03:08:10;;;;;;;27.75;24.70;;;20.00;38.70;;;;;;4953966;29;20070;-86
2023/07/30 03:10:39;;;;;;;26.95;24.05;;;20.90;99.90;;;;;;4967340;28;20058;-86
2023/07/30 03:13:04;;;;;;;27.67;24.58;;;20.80;99.90;;;;;;4973787;28;20469;-85
2023/07/30 03:15:30;;;;;;;24.15;21.63;;;21.40;1.00;;;;;;4946744;28;20044;-86
2023/07/30 03:17:55;;;;;;;23.15;19.92;;;21.50;99.90;;;;;;4955261;28;20049;-86
2023/07/30 03:20:21;;;;;;;25.42;19.40;;;19.70;69.00;;;;;;4944185;28;20041;-86
2023/07/30 03:22:46;;;;;;;22.17;19.85;;;21.60;99.90;;;;;;4970878;28;20058;-86
2023/07/30 03:25:12;;;;;;;25.35;21.65;;;21.70;99.90;;;;;;4958209;28;20042;-86
2023/07/30 03:27:38;;;;;;;26.92;20.98;;;19.70;1.00;;;;;;4974163;28;20043;-86
2023/07/30 03:30:04;;;;;;;27.13;23.08;;;19.90;99.90;;;;;;4965151;28;20105;-86
2023/07/30 03:32:30;;;;;;;25.73;21.80;;;19.70;99.90;;;;;;4974019;28;20539;-86
2023/07/30 03:34:55;;;;;;;29.50;22.63;;;21.60;99.90;;;;;;4966940;28;20062;-86
2023/07/30 03:37:21;;;;;;;29.15;24.95;;;19.90;99.90;;;;;;4938645;29;20098;-86
2023/07/30 03:39:46;;;;;;;28.33;23.83;;;19.60;99.90;;;;;;4949027;28;20031;-86
2023/07/30 03:42:12;;;;;;;29.20;24.45;;;19.90;96.30;;;;;;4957151;28;20078;-86
2023/07/30 03:44:37;;;;;;;37.03;25.63;;;20.80;39.80;;;;;;4961207;28;20043;-86
2023/07/30 03:47:03;;;;;;;28.05;24.05;;;19.70;18.30;;;;;;4953296;28;20046;-86
2023/07/30 03:49:29;;;;;;;32.95;24.63;;;19.90;1.00;;;;;;4952905;28;20047;-86
2023/07/30 03:51:54;;;;;;;27.73;23.88;;;19.70;1.00;;;;;;4938229;29;20043;-86
2023/07/30 03:54:20;;;;;;;32.90;24.48;;;19.90;1.00;;;;;;4954356;28;20043;-86
2023/07/30 03:56:45;;;;;;;29.58;24.10;;;19.70;1.00;;;;;;4938204;29;20035;-86
2023/07/30 03:59:11;;;;;;;33.80;24.05;;;19.90;1.00;;;;;;4946111;28;20034;-86
2023/07/30 04:01:36;;;;;;;31.83;24.40;;;21.30;99.90;;;;;;4973836;28;20038;-86
2023/07/30 04:04:02;;;;;;;30.48;23.42;;;21.50;99.90;;;;;;4973321;28;20039;-86
2023/07/30 04:06:28;;;;;;;29.13;22.92;;;19.90;99.90;;;;;;4972641;28;20122;-86
2023/07/30 04:08:53;;;;;;;29.08;22.33;;;20.30;99.90;;;;;;4966490;28;20122;-86
2023/07/30 04:11:19;;;;;;;31.67;23.35;;;20.00;73.10;;;;;;4971534;28;20039;-86
2023/07/30 04:13:44;;;;;;;31.17;24.70;;;20.20;1.00;;;;;;4973728;28;20035;-86
2023/07/30 04:16:10;;;;;;;26.52;23.13;;;19.90;1.00;;;;;;4951830;28;20043;-86
2023/07/30 04:18:35;;;;;;;29.55;23.80;;;20.90;1.00;;;;;;4969407;28;20125;-86
2023/07/30 04:21:01;;;;;;;31.75;23.40;;;21.00;1.00;;;;;;4953869;28;20094;-86
2023/07/30 04:23:26;;;;;;;26.70;23.30;;;21.80;1.00;;;;;;4954273;28;20050;-86
2023/07/30 04:25:52;;;;;;;31.23;25.13;;;21.80;1.00;;;;;;4937520;29;20082;-85
2023/07/30 04:28:18;;;;;;;29.63;24.00;;;19.90;1.00;;;;;;4939272;28;20050;-86
2023/07/30 04:30:44;;;;;;;27.50;24.25;;;20.30;99.90;;;;;;4941209;28;20094;-86
2023/07/30 04:33:10;;;;;;;28.67;23.45;;;19.90;99.90;;;;;;4954068;28;20094;-86
2023/07/30 04:35:35;;;;;;;31.77;24.13;;;19.80;99.90;;;;;;4962197;28;20054;-86
2023/07/30 04:38:01;;;;;;;31.10;24.25;;;20.00;99.90;;;;;;4956441;28;20035;-86
2023/07/30 04:40:26;;;;;;;32.17;23.77;;;20.10;99.90;;;;;;4972802;28;20038;-86
2023/07/30 04:42:52;;;;;;;30.95;24.35;;;19.80;99.90;;;;;;4972548;28;20125;-86
2023/07/30 04:45:17;;;;;;;28.55;23.13;;;22.00;99.90;;;;;;4947237;28;20444;-86
2023/07/30 04:47:43;;;;;;;29.88;23.02;;;21.60;99.90;;;;;;4953833;28;20050;-86
2023/07/30 04:50:09;;;;;;;26.92;24.02;;;19.90;99.90;;;;;;4939379;28;20086;-86
2023/07/30 04:52:34;;;;;;;36.05;25.38;;;19.90;99.90;;;;;;4955989;28;20092;-86
2023/07/30 04:55:00;;;;;;;26.45;23.50;;;19.90;99.90;;;;;;4970510;28;20039;-86
2023/07/30 04:57:26;;;;;;;31.40;24.90;;;20.10;99.90;;;;;;4966459;28;20125;-86
2023/07/30 04:59:52;;;;;;;31.88;25.08;;;19.80;99.90;;;;;;4972942;28;20042;-86
2023/07/30 05:02:17;;;;;;;29.20;23.02;;;19.90;99.90;;;;;;4971699;28;20089;-86
2023/07/30 05:04:43;;;;;;;29.83;24.30;;;21.30;99.90;;;;;;4962472;28;20039;-86
2023/07/30 05:07:08;;;;;;;36.33;25.10;;;21.40;99.90;;;;;;4971023;28;20140;-86
2023/07/30 05:09:34;;;;;;;33.33;27.00;;;20.10;99.90;;;;;;4972301;28;20057;-86
2023/07/30 05:12:00;;;;;;;31.48;25.23;;;19.80;99.90;;;;;;4971943;28;20517;-86
2023/07/30 05:14:25;;;;;;;31.33;23.58;;;20.50;99.90;;;;;;4971827;28;20046;-86
2023/07/30 05:16:51;;;;;;;32.25;24.55;;;21.50;99.90;;;;;;4956063;28;20166;-86
2023/07/30 05:19:16;;;;;;;34.15;25.35;;;20.60;99.90;;;;;;4956210;28;20043;-86
2023/07/30 05:21:42;;;;;;;32.85;25.25;;;19.90;99.90;;;;;;4957745;28;20043;-86
2023/07/30 05:24:08;;;;;;;33.65;25.88;;;20.40;99.90;;;;;;4971435;28;20318;-86
2023/07/30 05:26:33;;;;;;;37.88;28.67;;;19.80;99.90;;;;;;4940523;29;20035;-86
2023/07/30 05:28:59;;;;;;;32.22;24.50;;;21.50;99.90;;;;;;4953014;28;20047;-86
2023/07/30 05:31:24;;;;;;;30.83;25.60;;;19.70;99.90;;;;;;4963070;28;20497;-86
2023/07/30 05:33:50;;;;;;;29.73;24.33;;;19.80;99.90;;;;;;4972130;28;20133;-87
2023/07/30 05:36:15;;;;;;;29.92;24.70;;;20.60;99.90;;;;;;4956609;28;20070;-86
2023/07/30 05:38:41;;;;;;;33.78;25.00;;;20.50;99.90;;;;;;4955447;28;20042;-86
2023/07/30 05:41:06;;;;;;;34.20;26.02;;;19.90;99.90;;;;;;4969950;28;20034;-86
2023/07/30 05:43:32;;;;;;;33.33;26.08;;;19.80;99.90;;;;;;4952007;29;20039;-86
2023/07/30 05:45:58;;;;;;;35.30;25.70;;;19.60;99.90;;;;;;4970260;28;20053;-86
2023/07/30 05:48:23;;;;;;;31.63;24.23;;;19.70;99.90;;;;;;4942860;28;20560;-87
2023/07/30 05:50:49;;;;;;;31.42;24.48;;;19.80;99.90;;;;;;4963722;28;20042;-86
2023/07/30 05:53:15;;;;;;;31.50;23.75;;;19.90;99.90;;;;;;4955594;28;20484;-86
2023/07/30 05:55:40;;;;;;;27.10;22.17;;;21.20;99.90;;;;;;4971899;28;20047;-86
2023/07/30 05:58:06;;;;;;;28.17;21.85;;;20.00;99.90;;;;;;4949345;28;20042;-86
2023/07/30 06:00:31;;;;;;;25.90;20.70;;;20.10;99.90;;;;;;4942804;29;20038;-86
2023/07/30 06:02:57;;;;;;;32.13;21.80;;;20.30;47.10;;;;;;4969863;28;20493;-86
2023/07/30 06:05:22;;;;;;;26.58;19.67;;;20.90;1.00;;;;;;4959170;28;20141;-86
2023/07/30 06:07:48;;;;;;;28.58;22.58;;;20.70;1.00;;;;;;4957668;28;20091;-86
2023/07/30 06:10:13;;;;;;;32.10;24.23;;;20.20;1.00;;;;;;4947434;28;20046;-86
2023/07/30 06:12:39;;;;;;;30.25;21.35;;;20.20;1.00;;;;;;4970796;28;20042;-86
2023/07/30 06:15:06;;;;;;;28.50;22.08;;;20.60;1.00;;;;;;4970215;28;20037;-86
2023/07/30 06:17:32;;;;;;;29.90;20.77;;;20.20;1.00;;;;;;4971019;28;20086;-86
2023/07/30 06:19:57;;;;;;;26.00;20.95;;;20.10;99.90;;;;;;4965449;28;20046;-86
2023/07/30 06:22:23;;;;;;;30.98;21.67;;;21.80;99.90;;;;;;4968157;28;20129;-86
2023/07/30 06:24:48;;;;;;;31.98;23.13;;;20.00;99.90;;;;;;4968805;28;20069;-86
2023/07/30 06:27:14;;;;;;;27.73;21.73;;;19.80;99.90;;;;;;4951821;28;20046;-86
2023/07/30 06:29:39;;;;;;;26.77;22.05;;;20.20;99.90;;;;;;4963528;28;20043;-86
2023/07/30 06:32:06;;;;;;;26.58;19.20;;;20.10;99.90;;;;;;4946919;28;20081;-86
2023/07/30 06:34:31;;;;;;;28.15;18.35;;;20.10;99.90;;;;;;4960563;28;20062;-86
2023/07/30 06:36:57;;;;;;;28.20;19.85;;;20.10;99.90;;;;;;4951172;28;20035;-86
2023/07/30 06:39:22;;;;;;;24.00;18.92;;;21.80;99.90;;;;;;4945315;28;20058;-86
2023/07/30 06:41:48;;;;;;;28.55;19.33;;;20.90;99.90;;;;;;4950654;28;20043;-86
2023/07/30 06:44:13;;;;;;;25.80;18.92;;;20.40;99.90;;;;;;4970491;28;20039;-86
2023/07/30 06:46:39;;;;;;;22.42;16.45;;;21.00;99.90;;;;;;4956811;28;20104;-85
2023/07/30 06:49:04;;;;;;;24.65;17.83;;;20.30;99.90;;;;;;4952196;28;20046;-85
2023/07/30 06:51:30;;;;;;;23.80;16.52;;;20.50;99.90;;;;;;4958394;28;20090;-85
2023/07/30 06:53:56;;;;;;;23.60;17.10;;;20.50;99.90;;;;;;4963420;28;20062;-85
2023/07/30 06:56:21;;;;;;;23.48;17.75;;;20.70;99.90;;;;;;4942973;28;20068;-85
2023/07/30 06:58:47;;;;;;;25.55;17.10;;;20.60;99.90;;;;;;4969718;28;20040;-85
2023/07/30 07:01:13;;;;;;;29.55;19.52;;;20.40;99.90;;;;;;4959908;28;20510;-85
2023/07/30 07:03:38;;;;;;;25.00;19.23;;;20.40;99.90;;;;;;4947335;28;20045;-85
2023/07/30 07:06:04;;;;;;;22.23;16.42;;;20.30;99.90;;;;;;4969434;28;20058;-85
2023/07/30 07:08:30;;;;;;;26.45;16.95;;;20.30;91.40;;;;;;4969596;28;20054;-85
2023/07/30 07:10:56;;;;;;;27.33;17.73;;;22.30;63.50;;;;;;4967875;28;20493;-85
2023/07/30 07:13:22;;;;;;;23.45;18.90;;;20.40;48.70;;;;;;4960043;28;20031;-85
2023/07/30 07:15:47;;;;;;;28.05;18.45;;;20.60;94.20;;;;;;4953390;28;20497;-85
2023/07/30 07:18:13;;;;;;;23.27;15.18;;;20.80;98.40;;;;;;4965253;28;20716;-85
2023/07/30 07:20:38;;;;;;;20.90;15.77;;;20.90;43.50;;;;;;4963339;28;20047;-85
2023/07/30 07:23:04;;;;;;;23.65;15.05;;;20.90;2.40;;;;;;4957799;28;20077;-85
2023/07/30 07:25:30;;;;;;;25.67;17.17;;;21.10;1.00;;;;;;4956674;28;20038;-85
2023/07/30 07:27:56;;;;;;;22.58;16.10;;;20.90;1.00;;;;;;4972570;28;20512;-85
2023/07/30 07:30:21;;;;;;;24.92;18.48;;;22.10;1.00;;;;;;4951845;28;20042;-85
2023/07/30 07:32:50;;;;;;;23.95;16.67;;;21.00;1.00;;;;;;4966409;28;20467;-85
2023/07/30 07:35:16;;;;;;;22.95;17.67;;;20.70;1.00;;;;;;4970648;28;20102;-85
2023/07/30 07:37:42;;;;;;;20.10;17.95;;;20.70;1.00;;;;;;4950491;28;20083;-85
2023/07/30 07:40:09;;;;;;;25.17;20.85;;;20.60;1.00;;;;;;4962319;28;20043;-85
2023/07/30 07:42:35;;;;;;;28.27;19.80;;;20.60;1.00;;;;;;4963025;28;20051;-85
2023/07/30 07:45:01;;;;;;;25.50;16.70;;;20.60;1.00;;;;;;4947585;28;20039;-85
2023/07/30 07:47:26;;;;;;;21.50;18.40;;;20.50;1.00;;;;;;4950574;28;20382;-85
2023/07/30 07:49:52;;;;;;;24.52;18.90;;;20.40;1.00;;;;;;4957480;28;20054;-86
2023/07/30 07:52:19;;;;;;;24.70;19.10;;;20.30;1.00;;;;;;4964718;28;20043;-86
2023/07/30 07:54:45;;;;;;;28.25;19.23;;;20.40;1.00;;;;;;4957606;28;20094;-85
2023/07/30 07:57:10;;;;;;;29.13;20.23;;;20.30;1.00;;;;;;4968600;28;20043;-85
2023/07/30 07:59:36;;;;;;;24.77;21.38;;;20.20;1.00;;;;;;4954078;28;20615;-86
2023/07/30 08:02:02;;;;;;;28.45;21.23;;;20.20;1.00;;;;;;4963213;28;20058;-85
2023/07/30 08:04:27;;;;;;;26.05;20.60;;;20.30;1.00;;;;;;4969965;28;20046;-85
2023/07/30 08:06:53;;;;;;;30.90;22.10;;;20.30;1.00;;;;;;4951706;28;20537;-85
2023/07/30 08:09:19;;;;;;;25.63;21.48;;;20.30;25.30;;;;;;4967270;28;20101;-86
2023/07/30 08:11:44;;;;;;;26.23;20.83;;;20.40;54.60;;;;;;4958434;28;20039;-86
2023/07/30 08:14:10;;;;;;;30.95;20.70;;;20.40;61.20;;;;;;4960779;28;20047;-85
2023/07/30 08:16:35;;;;;;;20.00;17.45;;;21.20;85.80;;;;;;4953420;28;20499;-86
2023/07/30 08:19:01;;;;;;;22.23;19.58;;;21.80;59.20;;;;;;4966789;28;20043;-85
2023/07/30 08:21:26;;;;;;;26.65;17.20;;;20.50;30.40;;;;;;4965731;28;20046;-85
2023/07/30 08:23:52;;;;;;;20.63;16.20;;;20.60;16.10;;;;;;4962696;28;20055;-85
2023/07/30 08:26:18;;;;;;;22.63;18.05;;;20.70;1.00;;;;;;4966130;28;20069;-83
2023/07/30 08:28:44;;;;;;;27.50;16.98;;;20.90;1.00;;;;;;4950040;28;20129;-85
2023/07/30 08:31:10;;;;;;;24.73;17.55;;;21.90;1.00;;;;;;4970762;28;20123;-85
2023/07/30 08:33:35;;;;;;;25.50;18.38;;;21.20;1.00;;;;;;4943056;28;20050;-85
2023/07/30 08:36:01;;;;;;;25.45;17.83;;;21.00;1.00;;;;;;4970438;28;20038;-85
2023/07/30 08:38:29;;;;;;;23.88;16.48;;;21.10;1.00;;;;;;4968609;28;20061;-86
2023/07/30 08:40:55;;;;;;;20.80;15.23;;;21.20;1.00;;;;;;4969273;28;20046;-85
2023/07/30 08:43:21;;;;;;;19.63;16.48;;;21.20;1.00;;;;;;4937447;29;20430;-85
2023/07/30 08:45:46;;;;;;;20.38;16.52;;;21.20;1.00;;;;;;4946555;28;20034;-85
2023/07/30 08:48:12;;;;;;;21.02;16.75;;;21.10;1.00;;;;;;4954889;28;20037;-85
2023/07/30 08:50:39;;;;;;;22.35;15.95;;;21.70;1.00;;;;;;4970995;28;20046;-85
2023/07/30 08:53:06;;;;;;;22.15;15.50;;;21.20;1.00;;;;;;4970288;28;20511;-85
2023/07/30 08:55:33;;;;;;;19.58;15.73;;;21.40;1.00;;;;;;4951786;28;20027;-85
2023/07/30 08:58:01;;;;;;;24.75;16.10;;;22.10;1.00;;;;;;4951173;28;20049;-85
2023/07/30 09:00:32;;;;;;;21.83;17.30;;;21.90;1.00;;;;;;4967294;28;20031;-85
2023/07/30 09:03:00;;;;;;;21.45;15.23;;;22.00;1.00;;;;;;4958936;28;20035;-85
2023/07/30 09:05:29;;;;;;;25.25;15.60;;;22.70;1.00;;;;;;4971699;28;20404;-85
2023/07/30 09:07:58;;;;;;;20.73;14.00;;;22.50;1.00;;;;;;4959988;28;20122;-86
2023/07/30 09:10:25;;;;;;;19.15;14.70;;;22.90;1.00;;;;;;4954743;28;20427;-86
2023/07/30 09:12:55;;;;;;;20.38;14.25;;;22.80;1.00;;;;;;4970667;28;20042;-85
2023/07/30 09:15:32;;;;;;;17.55;14.50;;;23.00;1.00;;;;;;4957134;28;20039;-86
2023/07/30 09:17:59;;;;;;;23.77;17.85;;;23.00;99.90;;;;;;4967720;28;20436;-86
2023/07/30 09:20:25;;;;;;;20.52;17.42;;;22.70;99.90;;;;;;4970605;28;20055;-86
2023/07/30 09:22:51;;;;;;;23.17;19.02;;;22.30;99.90;;;;;;4947539;28;20130;-86
2023/07/30 09:25:20;;;;;;;23.98;21.38;;;22.00;99.90;;;;;;4962171;28;20493;-86
2023/07/30 09:27:49;;;;;;;24.77;21.05;;;21.90;99.90;;;;;;4968464;28;20093;-86
2023/07/30 09:30:21;;;;;;;17.13;15.20;;;21.50;99.90;;;;;;4982834;28;20047;-86
2023/07/30 09:32:54;;;;;;;24.67;16.92;;;21.90;99.90;;;;;;4964824;28;20043;-86
2023/07/30 09:35:20;;;;;;;18.85;14.48;;;22.20;99.90;;;;;;4967775;28;20081;-86
2023/07/30 09:37:46;;;;;;;15.82;13.15;;;22.70;99.90;;;;;;4947378;28;20031;-86
2023/07/30 09:40:18;;;;;;;22.30;13.68;;;23.00;99.90;;;;;;4948272;28;20062;-86
2023/07/30 09:42:45;;;;;;;18.33;13.57;;;23.30;99.90;;;;;;4954963;28;20042;-86
2023/07/30 09:45:25;;;;;;;16.58;12.77;;;23.20;99.90;;;;;;4955325;28;20178;-86
2023/07/30 09:47:52;;;;;;;18.98;13.35;;;23.20;99.90;;;;;;4969035;28;20501;-86
2023/07/30 09:50:18;;;;;;;17.75;13.52;;;23.30;99.90;;;;;;4969863;28;20158;-86
2023/07/30 09:52:44;;;;;;;17.98;13.38;;;23.50;99.90;;;;;;4947475;29;20051;-85
2023/07/30 09:55:10;;;;;;;22.55;16.30;;;23.30;99.90;;;;;;4936505;28;20121;-86
2023/07/30 09:57:37;;;;;;;23.08;14.60;;;23.00;99.90;;;;;;4957617;28;20031;-86
2023/07/30 10:00:04;;;;;;;21.55;14.30;;;22.80;99.90;;;;;;4968848;28;20444;-86
2023/07/30 10:02:31;;;;;;;22.27;14.73;;;22.70;99.90;;;;;;4956091;28;20046;-86
2023/07/30 10:04:59;;;;;;;22.85;12.90;;;22.80;99.90;;;;;;4970021;28;20046;-86
2023/07/30 10:07:28;;;;;;;22.05;15.52;;;23.20;99.90;;;;;;4945589;28;20047;-86
2023/07/30 10:09:58;;;;;;;22.38;15.07;;;23.10;99.90;;;;;;4937420;29;20039;-86
2023/07/30 10:12:30;;;;;;;17.92;13.63;;;23.10;99.90;;;;;;4957520;28;20047;-86
2023/07/30 10:14:56;;;;;;;19.00;12.38;;;23.70;99.90;;;;;;4953641;28;20440;-86
2023/07/30 10:17:22;;;;;;;19.75;13.35;;;23.80;99.90;;;;;;4966507;28;20134;-86
2023/07/30 10:19:49;;;;;;;18.90;12.50;;;23.40;99.90;;;;;;4966685;28;20035;-86
2023/07/30 10:22:17;;;;;;;23.92;16.80;;;22.90;99.90;;;;;;4968976;28;20039;-86
2023/07/30 10:25:07;;;;;;;19.70;13.27;;;22.70;99.90;;;;;;4976019;28;20035;-86
2023/07/30 10:27:41;;;;;;;21.90;13.90;;;22.80;99.90;;;;;;4963213;28;20051;-86
2023/07/30 10:30:12;;;;;;;15.95;8.65;;;22.80;99.90;;;;;;4966641;28;20408;-86
2023/07/30 10:32:58;;;;;;;21.48;11.95;;;23.00;99.90;;;;;;4973235;28;20047;-86
2023/07/30 10:35:39;;;;;;;21.25;11.07;;;23.30;99.90;;;;;;4961824;28;20042;-86
2023/07/30 10:38:14;;;;;;;17.15;9.40;;;23.10;99.90;;;;;;4966587;28;20492;-86
2023/07/30 10:40:40;;;;;;;18.20;11.88;;;22.60;99.90;;;;;;4962690;28;20039;-86
2023/07/30 10:43:16;;;;;;;20.45;12.52;;;22.30;99.90;;;;;;4935540;29;20465;-86
2023/07/30 10:45:50;;;;;;;19.42;12.02;;;22.20;99.90;;;;;;4947253;28;20035;-86
2023/07/30 10:48:16;;;;;;;19.50;14.18;;;22.40;99.90;;;;;;4962867;28;20071;-86
2023/07/30 10:50:42;;;;;;;18.95;14.77;;;22.30;99.90;;;;;;4962487;28;20045;-86
2023/07/30 10:53:08;;;;;;;17.70;11.63;;;22.10;99.90;;;;;;4966553;28;20582;-86
2023/07/30 10:55:34;;;;;;;17.42;12.05;;;22.30;99.90;;;;;;4964764;28;20043;-86
2023/07/30 10:58:01;;;;;;;19.25;13.20;;;22.50;99.90;;;;;;4960935;28;20126;-86
2023/07/30 11:00:26;;;;;;;19.52;14.45;;;22.50;99.90;;;;;;4964752;28;20039;-86
2023/07/30 11:02:55;;;;;;;19.67;15.85;;;22.50;99.90;;;;;;4960275;28;20393;-85
2023/07/30 11:05:21;;;;;;;20.70;18.55;;;22.10;99.90;;;;;;4965607;28;20136;-86
2023/07/30 11:07:51;;;;;;;23.30;17.10;;;22.70;99.90;;;;;;4946615;28;20075;-86
2023/07/30 11:10:17;;;;;;;21.08;14.02;;;21.90;99.90;;;;;;4972762;28;20437;-86
2023/07/30 11:12:42;;;;;;;20.20;12.63;;;22.00;99.90;;;;;;4956958;28;20112;-86
2023/07/30 11:15:09;;;;;;;19.10;13.50;;;22.40;99.90;;;;;;4959429;28;20086;-86
2023/07/30 11:17:35;;;;;;;15.02;11.05;;;22.10;99.90;;;;;;4963531;28;20420;-87
2023/07/30 11:20:02;;;;;;;17.27;11.65;;;22.30;99.90;;;;;;4973710;28;20039;-86
2023/07/30 11:22:32;;;;;;;15.88;10.15;;;22.20;99.90;;;;;;4966636;28;20049;-86
2023/07/30 11:24:57;;;;;;;12.93;8.90;;;22.10;99.90;;;;;;4963760;28;20038;-86
2023/07/30 11:27:23;;;;;;;18.42;10.00;;;22.60;99.90;;;;;;4969574;28;20421;-85
2023/07/30 11:29:56;;;;;;;18.23;10.55;;;22.80;99.90;;;;;;4943067;28;20051;-85
2023/07/30 11:32:25;;;;;;;10.30;6.82;;;22.90;99.90;;;;;;4950917;28;20051;-85
2023/07/30 11:34:54;;;;;;;14.60;7.22;;;22.60;99.90;;;;;;4989143;28;20037;-85
2023/07/30 11:37:21;;;;;;;13.48;6.68;;;22.50;99.90;;;;;;4952761;28;20043;-86
2023/07/30 11:39:48;;;;;;;12.85;6.65;;;22.50;99.90;;;;;;4949271;28;20078;-85
2023/07/30 11:42:13;;;;;;;11.60;7.70;;;22.30;99.90;;;;;;4944497;28;20054;-85
2023/07/30 11:44:39;;;;;;;11.30;6.75;;;22.20;99.90;;;;;;4939443;29;20047;-85
2023/07/30 11:47:06;;;;;;;12.27;8.43;;;22.10;99.90;;;;;;4946436;28;20118;-85
2023/07/30 11:49:31;;;;;;;18.27;9.27;;;22.20;99.90;;;;;;4966568;28;20051;-85
2023/07/30 11:52:10;;;;;;;14.35;8.65;;;22.20;99.90;;;;;;4954472;28;20134;-85
2023/07/30 11:54:36;;;;;;;12.77;8.93;;;22.40;99.90;;;;;;4970493;28;20070;-85
2023/07/30 11:57:01;;;;;;;12.63;6.38;;;22.50;99.90;;;;;;4949452;28;20398;-85
2023/07/30 11:59:27;;;;;;;13.77;7.10;;;22.50;99.90;;;;;;4973060;28;20129;-85
2023/07/30 12:01:53;;;;;;;10.50;5.55;;;23.30;99.90;;;;;;4967874;28;20045;-85
2023/07/30 12:04:19;;;;;;;13.45;7.15;;;22.60;99.90;;;;;;4961379;28;20105;-85
2023/07/30 12:06:45;;;;;;;16.33;8.65;;;22.60;99.90;;;;;;4971892;28;20063;-85
2023/07/30 12:09:22;;;;;;;14.60;7.60;;;24.00;99.90;;;;;;4975030;28;20117;-85
2023/07/30 12:11:48;;;;;;;16.75;8.32;;;22.50;99.90;;;;;;4967381;28;20051;-85
2023/07/30 12:14:15;;;;;;;13.45;6.57;;;22.50;99.90;;;;;;4963986;28;20045;-85
2023/07/30 12:16:40;;;;;;;15.00;7.63;;;22.20;99.90;;;;;;4969648;28;20101;-85
2023/07/30 12:19:06;;;;;;;17.08;9.95;;;22.20;99.90;;;;;;4961368;28;20035;-85
2023/07/30 12:21:32;;;;;;;13.48;7.57;;;22.40;99.90;;;;;;4968256;28;20043;-85
2023/07/30 12:23:57;;;;;;;13.57;8.10;;;22.50;99.90;;;;;;4968787;28;20034;-85
2023/07/30 12:26:23;;;;;;;14.68;6.72;;;22.60;99.90;;;;;;4960957;28;20043;-85